ΕΜΥ, Εθνική Μετεωρολογική Υπηρεσία - Δελτία Καιρού, Προγνώσεις

ΑΕΡΟΝΑΥΤΙΛΙΑ

GREEK AIRPORTS CODES

LGST 270930Z 32018KT 9999 SCT020 21/17 Q1013=

EUROPEAN AIRPORTS CODES

LKPR 271000Z 36004KT 330V040 9999 FEW032TCU SCT036 21/13 Q1018NOSIG=